Tiempo atmosférico en la estación meteorológica de Villarrodrigo, Jaén (872 m.)



Fecha
DESCASC
Temp. máxima en grados centígrados (hora)
DESCASC
Temp. mínima en grados centígrados (hora)
DESCASC
Temp. media en grados centígrados
DESCASC
Racha de viento máxima en m/sg (hora)
DESCASC
Velocidad máxima media en intervalos de 10 minutos(hora)
DESCASC
Precipitaciones diarias en mm
DESCASC
Precipitaciones de 00:00 a 06:00 en mm
DESCASC
Precipitaciones de 06:00 a 12:00 en mm
DESCASC
Precipitaciones de 12:00 a 18:00 en mm
DESCASC
Precipitaciones de 18:00 a 24:00 en mm
DESCASC
22-04-2019 12 (19:30) 6.1 (03:20) 9 7.5 (18:50) 3.89 (01:40) 2 1.6 0.4 0 0
21-04-2019 10.2 (14:50) 7.5 (23:59) 8.8 6.67 (12:30) 3.33 (15:10) 0.8 0 0 0 0.8
20-04-2019 12.9 (14:30) 7.1 (02:10) 10 13.61 (09:10) 6.11 (09:00) 33.4 16 17 0.4 0
19-04-2019 11.5 (15:50) 7.6 (07:20) 9.5 6.39 (14:40) 3.61 (14:40) 5.4 0 1.8 1.8 1.8
18-04-2019 14.7 (00:00) 7.4 (00:00) 11 12.5 (08:50) 6.94 (08:50) 24 2.6 21.4 0 0
17-04-2019 23.1 (13:50) 13.4 (00:00) 18.3 16.11 (16:30) 7.78 (17:00) 0 0 0 0 0
16-04-2019 24.6 (18:40) 7.5 (00:00) 16.1 12.78 (22:40) 8.61 (23:10) 0 0 0 0 0
15-04-2019 23.7 (16:40) 12 (00:00) 17.9 15 (19:00) 6.39 (20:40) 0 0 0 0 0
14-04-2019 22 (17:30) 7.9 (00:00) 15 21.11 (19:00) 5 (13:50) 0 0 0 0 0
13-04-2019 20.2 (17:30) 5.6 (00:00) 12.9 10.28 (15:20) 4.44 (16:50) 0 0 0 0 0
12-04-2019 16.5 (16:00) 3.4 (00:00) 10 10 (16:30) 5.28 (16:30) 0 0 0 0 0
11-04-2019 15 (17:00) 3.9 (00:00) 9.5 8.89 (17:20) 4.72 (18:30) 0 0 0 0 0
10-04-2019 10.5 (16:00) 4.3 (00:00) 7.4 12.22 (01:10) 5.28 (01:10) 0.8 0 0 0.8 0
09-04-2019 11.5 (14:00) 5.6 (00:00) 8.5 14.72 (16:00) 6.94 (16:00) 4.4 0.2 0 0.8 3.4
08-04-2019 12.1 (14:10) 7.6 (00:00) 9.9 12.5 (16:30) 5.56 (15:00) 26.4 1.4 0.8 3.2 21
07-04-2019 10.8 (16:50) 4 (00:00) 7.4 13.33 (07:30) 6.67 (16:30) 3.4 1.2 2 0.2 0
06-04-2019 8.3 (14:50) 2.3 (00:00) 5.3 13.89 (13:10) 5.83 (02:00) 12.8 1.2 4.8 4.4 2.4
05-04-2019 9.6 (00:00) 3.5 (00:00) 6.6 16.11 (16:30) 7.5 (15:30) 7.2 0 0 5.6 1.6
04-04-2019 16.1 (16:30) 3.8 (00:00) 10 10.56 (23:59) 5.28 (18:00) 0 0 0 0 0
03-04-2019 17.3 (16:50) 7.5 (00:00) 12.4 12.5 (16:10) 6.11 (18:00) 0 0 0 0 0
02-04-2019 17.1 (17:50) 8.8 (00:00) 13 7.78 (21:00) 3.89 (19:30) 4.8 2.8 0 0 2
01-04-2019 17.4 (17:50) 8.5 (00:00) 12.9 7.78 (20:40) 3.89 (13:30) 0.2 0 0 0 0.2
31-03-2019 12 (00:00) 8 (00:00) 10 13.33 (01:40) 7.78 (00:50) 9 2.8 5.8 0 0.4
30-03-2019 19.9 (14:50) 5.1 (00:00) 12.5 16.67 (19:10) 8.33 (19:10) 0 0 0 0 0
29-03-2019 15.1 (15:40) 7.3 (00:00) 11.2 16.94 (08:10) 8.89 (09:00) 0 0 0 0 0
28-03-2019 15.7 (15:20) 5 (00:00) 10.3 14.44 (12:20) 7.5 (12:20) -- -- 0 0 0
27-03-2019 15.7 (15:40) 6 (00:00) 10.8 19.72 (03:20) 6.39 (08:20) -- -- -- -- --
26-03-2019 17.9 (15:10) 8.6 (00:00) 13.3 23.61 (11:10) 11.11 (11:30) -- -- -- -- --
25-03-2019 20.1 (15:50) 6.9 (00:00) 13.5 13.61 (09:40) 4.72 (14:10) -- -- -- -- --

Gráficas

Temp. máximas Temp. mínimas Temp. medias Precipitaciones Rachas de viento máximas Velocidades máximas media en intervalos de 10 minutos

Datos horarios

Fecha y hora oficial Temperatura (ºC) Velocidad del viento (km/h) Dirección del viento Racha (km/h) Dirección de racha Precipitación (mm) Presión (hPa) Tendencia (hPa) Humedad (%)
2019-04-23 23:00:00 4.3 6 Sudeste 15 Sudeste 0 907.9 2.6 84
2019-04-23 22:00:00 3.7 4 Sudeste 46 Oeste 1.2 907.5 2.4 88
2019-04-23 21:00:00 7.1 10 Sudoeste 31 Sudoeste 0 905.8 1.7 67
2019-04-23 20:00:00 7.1 14 Sudoeste 39 Sudoeste 0 905.3 1.9 67
2019-04-23 19:00:00 7.1 18 Oeste 51 Oeste 0 905.1 1.9 74
2019-04-23 18:00:00 9.8 21 Oeste 50 Sudoeste 0 904.1 0.6 49
2019-04-23 17:00:00 11.5 21 Sudoeste 53 Sudoeste 0 903.4 -0.7 47
2019-04-23 16:00:00 11.1 14 Sudoeste 45 Sudoeste 0 903.2 -1 65
2019-04-23 15:00:00 9.4 16 Sudoeste 43 Sudoeste 0.2 903.5 -0.1 69
2019-04-23 14:00:00 8.4 16 Sudoeste 45 Sudoeste 0.4 904.1 1.2 80
2019-04-23 13:00:00 8.3 14 Sudoeste 40 Sudoeste 1.6 904.2 2.2 82
2019-04-23 12:00:00 9 10 Sudoeste 46 Sudoeste 1 903.6 1.5 82
2019-04-23 11:00:00 10.7 14 Sudoeste 37 Sudoeste 0 902.9 0.8 72
2019-04-23 10:00:00 10.4 11 Oeste 23 Oeste 0 902 -0.4 77
2019-04-23 09:00:00 10 7 Sudoeste 18 Sudoeste 0 902.1 -0.8 78
2019-04-23 08:00:00 9.5 5 Sudoeste 32 Sudoeste 0 902.1 -1.4 77
2019-04-23 07:00:00 9.5 15 Sudoeste 35 Sudoeste 0 902.4 -1.1 78
2019-04-23 06:00:00 9.3 8 Sudoeste 30 Oeste 0 902.9 -1.3 79
2019-04-23 05:00:00 9.4 8 Sudoeste 33 Sur 0 903.5 -1.1 79
2019-04-23 04:00:00 9.4 12 Sudoeste 40 Oeste 0 903.5 -1.1 77
2019-04-23 03:00:00 10.2 16 Sudoeste 37 Sudoeste 0 904.2 -0.2 72
2019-04-23 02:00:00 11 14 Sudoeste 38 Sudoeste 0 904.6 0 65
2019-04-23 01:00:00 11.6 12 Sur 39 Sudoeste 0 904.6 -0.1 67
2019-04-23 00:00:00 11.4 9 Sur 20 Sur 0 904.4 -0.1 67
2019-04-22 23:00:00 11 6 Sudeste 21 Sudoeste 0 904.6 0 72
2019-04-22 22:00:00 11.9 9 Sur 26 Sudoeste 0 904.7 0.2 64
2019-04-22 21:00:00 11.6 8 Sur 20 Sur 0 904.5 -0.1 67
2019-04-22 20:00:00 11.7 8 Sudeste 18 Sur 0 904.6 -0.6 69
2019-04-22 19:00:00 11.6 11 Sur 27 Sur 0 904.5 -1.3 69
2019-04-22 18:00:00 11.6 12 Sudeste 23 Sudeste 0 904.6 -1.7 70
2019-04-22 17:00:00 10.3 7 Sur 21 Sudoeste 0 905.2 -1.2 76
2019-04-22 16:00:00 9.3 9 Sur 19 Sudoeste 0 905.8 -0.8 80
2019-04-22 15:00:00 9.3 12 Sudoeste 23 Sudoeste 0 906.3 -0.4 79
2019-04-22 14:00:00 8.9 11 Sudoeste 23 Sudoeste 0 906.4 -0.1 83
2019-04-22 13:00:00 8.6 10 Sudoeste 20 Sudoeste 0 906.6 0.1 87
2019-04-22 12:00:00 7.8 9 Oeste 16 Oeste 0 906.7 0.2 89
2019-04-22 11:00:00 7.9 5 Oeste 16 Sudoeste 0 906.5 0.2 89
2019-04-22 10:00:00 7.1 4 Sudoeste 8 Oeste 0.2 906.5 0.5 92
2019-04-22 09:00:00 6.8 0 Calma 6 Oeste 0.2 906.5 0.1 91
2019-04-22 08:00:00 6.7 3 Oeste 6 Sudoeste 0 906.3 -0.6 90
2019-04-22 07:00:00 6.6 2 Sudoeste 6 Sudoeste 0 906 -1.2 89
2019-04-22 06:00:00 6.5 3 Oeste 8 Sur 0 906.4 -1.7 90
2019-04-22 05:00:00 6.3 0 Calma 5 Sudoeste 0 906.9 -2 90
2019-04-22 04:00:00 6.2 0 Calma 8 Oeste 0 907.2 -2.4 90
2019-04-22 03:00:00 6.3 2 Noroeste 11 Noroeste 0.2 908.1 -1.5 89
2019-04-22 02:00:00 6.7 4 Noroeste 27 Este 1.4 908.9 -1 80
2019-04-22 01:00:00 7 3 Nordeste 25 Nordeste 0 909.6 -0.2 77
2019-04-22 00:00:00 7.5 10 Este 21 Este 0.2 909.6 0 73
2019-04-21 23:00:00 7.7 5 Este 17 Este 0 909.9 0.2 87
2019-04-21 22:00:00 7.8 0 Calma 8 Norte 0 909.8 0.3 89
2019-04-21 21:00:00 7.9 5 Norte 17 Norte 0 909.6 0 88
2019-04-21 20:00:00 8.4 7 Norte 18 Noroeste 0.6 909.7 -0.1 84
2019-04-21 19:00:00 9.4 2 Este 20 Noroeste 0 909.5 -0.6 76
2019-04-21 18:00:00 9.5 10 Norte 22 Noroeste 0 909.6 -0.7 76
2019-04-21 17:00:00 9.8 6 Norte 19 Norte 0 909.8 -1.1 71
2019-04-21 16:00:00 10 4 Norte 24 Noroeste 0 910.1 -1 70
2019-04-21 15:00:00 10.1 10 Noroeste 19 Noroeste 0 910.3 -1 69
2019-04-21 14:00:00 8.7 7 Este 22 Este 0 910.9 -0.6 71
2019-04-21 13:00:00 9.3 4 Norte 24 Nordeste 0 911.1 -0.6 69
2019-04-21 12:00:00 9.5 2 Nordeste 15 Noroeste 0 911.3 -0.6 69
2019-04-21 11:00:00 8.3 8 Noroeste 17 Noroeste 0 911.5 -0.2 77
2019-04-21 10:00:00 8.3 4 Este 19 Este 0 911.7 -0.2 72
2019-04-21 09:00:00 7.9 6 Oeste 15 Noroeste 0 911.9 -0.4 75
2019-04-21 08:00:00 8.3 4 Nordeste 21 Nordeste 0 911.7 -1.3 71
2019-04-21 07:00:00 8.3 3 Oeste 20 Nordeste 0 911.9 -1.6 71
2019-04-21 06:00:00 8 4 Sudoeste 15 Oeste 0 912.3 -2 75
2019-04-21 05:00:00 8.5 4 Oeste 15 Oeste 0 913 -2.1 72
2019-04-21 04:00:00 8.4 6 Sur 14 Noroeste 0 913.5 -1.9 74
2019-04-21 03:00:00 8.6 4 Norte 16 Norte 0 914.3 -1.8 73
2019-04-21 02:00:00 8.5 4 Norte 13 Noroeste 0 915.1 -1.4 73
2019-04-21 01:00:00 8.7 4 Noroeste 17 Nordeste 0 915.4 -0.6 71
2019-04-21 00:00:00 9.4 3 Este 24 Este 0 916.1 0.4 64
2019-04-20 23:00:00 9.6 3 Este 14 Nordeste 0 916.5 1.4 65
2019-04-20 22:00:00 9.7 4 Nordeste 21 Norte 0 916 0.6 67
2019-04-20 21:00:00 9.9 6 Noroeste 37 Norte 0 915.7 0.8 66
2019-04-20 20:00:00 10.2 9 Nordeste 40 Este 0 915.1 0.3 61
2019-04-20 19:00:00 10.5 15 Este 44 Este 0 915.4 0.9 60
2019-04-20 18:00:00 10.8 11 Este 47 Este 0.2 914.9 0.6 67
2019-04-20 17:00:00 11.4 5 Norte 28 Este 0 914.8 0.5 70
2019-04-20 16:00:00 12.3 4 Norte 26 Norte 0 914.5 0.2 67
2019-04-20 15:00:00 12.3 4 Nordeste 42 Este 0 914.3 0.1 65
2019-04-20 14:00:00 12 10 Nordeste 29 Sudeste 0 914.3 0.4 69
2019-04-20 13:00:00 11.2 7 Este 22 Este 0.2 914.3 0.8 71
2019-04-20 12:00:00 10.4 5 Nordeste 21 Noroeste 0.6 914.2 0.1 75
2019-04-20 11:00:00 9.7 5 Nordeste 25 Nordeste 1 913.9 0 80
2019-04-20 10:00:00 9.5 6 Nordeste 49 Este 1.8 913.5 -0.4 77
2019-04-20 09:00:00 9.2 22 Este 42 Este 3.4 914.1 0.1 75
2019-04-20 08:00:00 7.3 2 Nordeste 8 Norte 6.4 913.9 -0.7 94
2019-04-20 07:00:00 7.3 3 Norte 8 Sudeste 3.8 913.9 -1.8 94
2019-04-20 06:00:00 7.3 3 Nordeste 12 Noroeste 5.4 914 -2.5 93
2019-04-20 05:00:00 7.3 5 Noroeste 14 Norte 3.6 914.6 -2.4 93
2019-04-20 04:00:00 7.2 8 Noroeste 21 Noroeste 3.6 915.7 -2.1 93
2019-04-20 03:00:00 7.2 6 Norte 20 Norte 1.6 916.5 -1.6 92
2019-04-20 02:00:00 7.4 7 Norte 20 Noroeste 0.6 917 -0.9 91
2019-04-20 01:00:00 7.6 4 Sur 9 Este 1.2 917.8 0.3 91
2019-04-20 00:00:00 7.8 2 Norte 10 Noroeste 0.8 918.1 1.1 89
2019-04-19 23:00:00 7.8 3 Este 10 Norte 0.2 917.9 1 85
2019-04-19 22:00:00 8.1 4 Sur 12 Noroeste 0 917.5 1 83
2019-04-19 21:00:00 8.1 4 Sudeste 9 Oeste 0 917 0.9 78
2019-04-19 20:00:00 8.6 4 Este 22 Este 0 916.9 1.1 76
2019-04-19 19:00:00 8.6 5 Nordeste 22 Este 0.8 916.5 0.6 81
2019-04-19 18:00:00 9.6 5 Nordeste 20 Nordeste 0.6 916.1 0.6 80
2019-04-19 17:00:00 10.8 7 Norte 19 Noroeste 0.2 915.8 -0.2 80
2019-04-19 16:00:00 11.2 2 Norte 19 Este 0 915.9 -0.8 67
2019-04-19 15:00:00 10.8 8 Sudeste 23 Este 0 915.5 -1.4 66
2019-04-19 14:00:00 10.2 6 Este 14 Este 0 916 -0.3 69
2019-04-19 13:00:00 9.1 4 Norte 8 Noroeste 1 916.7 0.5 86
2019-04-19 12:00:00 8.6 2 Oeste 7 Sudoeste 1.4 916.9 0.7 89
2019-04-19 11:00:00 8.5 3 Noroeste 8 Oeste 0.4 916.3 0.6 89
2019-04-19 10:00:00 8.5 3 Noroeste 9 Noroeste 0 916.2 1.1 91
2019-04-19 09:00:00 8 0 Calma 5 Oeste 0 916.2 1 92
2019-04-19 08:00:00 7.7 0 Calma 8 Oeste 0 915.7 0.4 92
2019-04-19 07:00:00 7.8 3 Noroeste 6 Noroeste 0 915.1 -0.2 91
2019-04-19 06:00:00 7.8 0 Calma 8 Noroeste 0 915.2 -0.4 91
2019-04-19 05:00:00 7.9 2 Norte 6 Noroeste 0 915.3 -0.3 91
2019-04-19 04:00:00 7.8 4 Oeste 17 Oeste 0 915.3 -0.2 91
2019-04-19 03:00:00 8.2 2 Oeste 18 Sur 0 915.6 0.2 88
2019-04-19 02:00:00 8.3 7 Sur 17 Sur 0 915.6 0.3 83
2019-04-19 01:00:00 8.5 6 Sudeste 15 Sur 0 915.5 0.8 82
2019-04-19 00:00:00 8.5 3 Sudeste 11 Oeste 0 915.4 1.4 85
2019-04-18 23:00:00 8.6 9 Sudoeste 16 Sudoeste 0 915.3 1.9 87
2019-04-18 22:00:00 8.6 10 Sur 24 Sudoeste 0 914.7 2 84
2019-04-18 21:00:00 9.5 8 Sur 32 Oeste 0 914 1.6 77
2019-04-18 20:00:00 10.4 12 Sur 42 Sudoeste 0 913.4 0.6 73
2019-04-18 19:00:00 12.5 11 Oeste 21 Sudoeste 0 912.7 -0.6 60
2019-04-18 18:00:00 11.7 3 Sudoeste 18 Sudeste 0 912.4 -1.4 67
2019-04-18 17:00:00 11.7 4 Noroeste 16 Oeste 0 912.8 -0.5 69
2019-04-18 16:00:00 9.6 9 Oeste 17 Oeste 0 913.3 -2.1 73
2019-04-18 15:00:00 8.9 5 Oeste 27 Oeste 0 913.8 -2.1 84
2019-04-18 14:00:00 8.7 4 Sur 19 Sudeste 0 913.3 -2.6 85
2019-04-18 13:00:00 7.5 13 Sur 28 Sudeste 0 915.4 -1 86
2019-04-18 12:00:00 8 3 Este 11 Este 0 915.9 0.1 87
2019-04-18 11:00:00 7.9 3 Sudoeste 15 Sudoeste 1.8 915.9 2 86
2019-04-18 10:00:00 7.7 10 Sudoeste 31 Oeste 5.6 916.4 3.4 90
2019-04-18 09:00:00 9 11 Oeste -- -- 10.4 915.8 1.6 92
2019-04-18 08:00:00 10.8 6 Sudoeste 19 Oeste 0.2 913.9 -1.3 93
2019-04-18 07:00:00 11.1 4 Noroeste 9 Oeste 3.4 913 -2.6 92
2019-04-18 06:00:00 11.2 2 Oeste 9 Noroeste 2.2 914.2 -1.9 90
2019-04-18 05:00:00 11.4 4 Oeste 9 Noroeste 0.4 915.2 -1.3 85
2019-04-18 04:00:00 11.7 5 Noroeste 18 Sudoeste 0 915.6 -0.9 82
2019-04-18 03:00:00 12.7 0 Calma 8 Oeste 0 916.1 -0.8 70
2019-04-18 02:00:00 13.2 5 Oeste 18 Sudoeste 0 916.5 0.4 68
2019-04-18 01:00:00 13.6 9 Oeste 27 Oeste 0 916.5 1 66
2019-04-18 00:00:00 14.7 4 Sudoeste 15 Sudeste 0 916.9 2.5 59
2019-04-17 23:00:00 15.4 4 Sur 27 Oeste 0 916.1 3.1 55
2019-04-17 22:00:00 16 10 Oeste 25 Oeste 0 915.5 3.4 54
2019-04-17 21:00:00 17 9 Sudoeste 32 Sudoeste 0 914.4 2.6 52
2019-04-17 20:00:00 19.5 17 Este 49 Este 0 913 1.4 35
2019-04-17 19:00:00 20.4 21 Este 45 Este 0 912.1 -0.5 34
2019-04-17 18:00:00 22.1 20 Este 54 Sudeste 0 911.8 -1.6 30
2019-04-17 17:00:00 22.3 28 Este 58 Este 0 911.6 -2.3 29
2019-04-17 16:00:00 22.7 22 Este 50 Este 0 912.6 -2 28
2019-04-17 15:00:00 22.1 25 Este 44 Este 0 913.4 -1.5 29
2019-04-17 14:00:00 22.7 26 Sudeste 41 Sudeste 0 913.9 -0.9 26
2019-04-17 13:00:00 21.9 21 Sudeste 40 Sudeste 0 914.6 -0.3 29
2019-04-17 12:00:00 21.1 24 Sudeste 42 Sudeste 0 914.9 -0.3 27
2019-04-17 11:00:00 21 22 Sudeste 40 Sudeste 0 914.8 -0.7 24
2019-04-17 10:00:00 19.8 14 Sudeste 32 Sur 0 914.9 -0.5 23
2019-04-17 09:00:00 18.2 15 Sudeste 34 Sudeste 0 915.2 -0.3 27
2019-04-17 08:00:00 16.7 18 Sudeste 34 Sudeste 0 915.5 -0.4 30
2019-04-17 07:00:00 15.5 13 Sudeste 28 Sudeste 0 915.4 -1.1 36
2019-04-17 06:00:00 14.8 11 Sudeste 30 Sudeste 0 915.5 -1.4 41
2019-04-17 05:00:00 14.8 10 Sudeste 27 Sudeste 0 915.9 -1.3 43
2019-04-17 04:00:00 14.1 6 Este 18 Este 0 916.5 -0.6 46
2019-04-17 03:00:00 14.8 9 Sudeste 36 Sudeste 0 916.9 -0.4 45
2019-04-17 02:00:00 14.7 21 Sudeste 44 Sudeste 0 917.2 0 50
2019-04-17 01:00:00 15.4 26 Sudeste 45 Sudeste 0 917.1 0.1 50
2019-04-17 00:00:00 15.4 27 Sudeste 45 Sudeste 0 917.3 0.9 56
2019-04-16 23:00:00 16.1 27 Sudeste 46 Sudeste 0 917.2 1.1 54
2019-04-16 22:00:00 16.9 12 Sudeste 36 Este 0 917 0.9 50
2019-04-16 21:00:00 18 17 Este 36 Este 0 916.4 -0.2 45
2019-04-16 20:00:00 20.5 21 Este 38 Este 0 916.1 -1.1 33
2019-04-16 19:00:00 23.5 8 Este 15 Nordeste 0 916.1 -2 23
2019-04-16 18:00:00 24 4 Norte 17 Oeste 0 916.6 -1.9 23
2019-04-16 17:00:00 23.7 8 Noroeste 19 Oeste 0 917.2 -1.8 28
2019-04-16 16:00:00 22.6 8 Oeste 23 Oeste 0 918.1 -1.4 28
2019-04-16 15:00:00 21.7 8 Noroeste 19 Noroeste 0 918.5 -1.8 30
2019-04-16 14:00:00 20.9 10 Oeste 17 Oeste 0 919 -1.5 31
2019-04-16 13:00:00 18.8 5 Oeste 17 Norte 0 919.5 -1 35
2019-04-16 12:00:00 17.9 4 Noroeste 13 Noroeste 0 920.3 0 35
2019-04-16 11:00:00 16.4 4 Oeste 11 Nordeste 0 920.5 0.6 41
2019-04-16 10:00:00 15.1 4 Norte 9 Nordeste 0 920.5 0.9 53
2019-04-16 09:00:00 11 6 Sudeste 15 Sudeste 0 920.3 0.5 69
2019-04-16 08:00:00 7.5 6 Sudeste 15 Sudeste 0 919.9 0 80
2019-04-16 07:00:00 8.1 9 Sudeste 15 Sudeste 0 919.6 -0.2 79
2019-04-16 06:00:00 9.1 7 Sudeste 10 Sudeste 0 919.8 0.2 76
2019-04-16 05:00:00 10.6 3 Sudoeste 12 Sudoeste 0 919.9 0 70
2019-04-16 04:00:00 11.5 3 Oeste 20 Oeste 0 919.8 0 68
2019-04-16 03:00:00 12.6 10 Oeste 19 Oeste 0 919.6 0.3 65
2019-04-16 02:00:00 13.2 8 Oeste 18 Oeste 0 919.9 1.8 63
2019-04-16 01:00:00 13.8 10 Oeste 28 Oeste 0 919.8 2.3 60
2019-04-16 00:00:00 15.1 11 Oeste 26 Sudoeste 0 919.3 2.8 52
2019-04-15 23:00:00 16.2 10 Sudoeste 28 Sudoeste 0 918.1 2.1 40
2019-04-15 22:00:00 17.2 11 Sudoeste 37 Sudoeste 0 917.5 2.3 32
2019-04-15 21:00:00 18.7 11 Sudoeste 51 Sudoeste 0 916.5 1.3 24
2019-04-15 20:00:00 21 21 Oeste -- -- 0 916 0.6 30
2019-04-15 19:00:00 22.5 17 Oeste 54 Sudoeste 0 915.2 -0.5 31
2019-04-15 18:00:00 23.2 16 Oeste 32 Oeste 0 915.2 -1.2 29
2019-04-15 17:00:00 23.7 12 Oeste 30 Oeste 0 915.4 -1.5 26
2019-04-15 16:00:00 22.5 15 Oeste 30 Sudoeste 0 915.7 -1.2 25
2019-04-15 15:00:00 20.6 15 Oeste 35 Sudoeste 0 916.4 -0.2 27
2019-04-15 14:00:00 20.3 13 Sudoeste 44 Sudoeste 0 916.9 1 36
2019-04-15 13:00:00 21.8 13 Sudoeste 34 Oeste 0 916.9 0.5 30
2019-04-15 12:00:00 22.7 10 Oeste 24 Sudoeste 0 916.6 -0.1 30
2019-04-15 11:00:00 21.9 6 Sudeste 21 Sur 0 915.9 -0.7 30
2019-04-15 10:00:00 19 3 Noroeste 8 Noroeste 0 916.4 0.1 50
2019-04-15 09:00:00 15 3 Noroeste 10 Sudeste 0 916.7 -0.2 55
2019-04-15 08:00:00 12 0 Calma 12 Sudeste 0 916.6 -0.7 65
2019-04-15 07:00:00 12.4 4 Sudeste 17 Sudeste 0 916.3 -1.4 63
2019-04-15 06:00:00 12.8 6 Sudeste 17 Sudeste 0 916.9 -1.4 63
2019-04-15 05:00:00 12.9 8 Sudeste 16 Este 0 917.3 -1.4 65
2019-04-15 04:00:00 13 9 Sudeste 16 Este 0 917.7 -1.4 64
2019-04-15 03:00:00 13.5 10 Sudeste 17 Sudeste 0 918.3 -1 62
2019-04-15 02:00:00 14.1 8 Sudeste 15 Este 0 918.7 -0.5 61
2019-04-15 01:00:00 14.5 9 Sudeste 15 Sudeste 0 919.1 0.1 59
2019-04-15 00:00:00 14.4 10 Sudeste 17 Sudeste 0 919.3 0.8 57
2019-04-14 23:00:00 15 9 Sudeste 14 Sudeste 0 919.2 0.9 55
2019-04-14 22:00:00 16.6 6 Sudeste 13 Sudoeste 0 919 0.9 48
2019-04-14 21:00:00 18.1 5 Sur 24 Sudoeste 0 918.5 0.2 42
2019-04-14 20:00:00 20.6 11 Sudoeste 24 Sudoeste 0 918.3 -0.4 35
2019-04-14 19:00:00 21.5 14 Sudoeste 76 Sudoeste 0 918.1 -1.4 32
2019-04-14 18:00:00 21.9 12 Oeste 27 Sudoeste 0 918.3 -1.4 35
2019-04-14 17:00:00 21.6 10 Sudoeste 26 Oeste 0 918.7 -1.3 32
2019-04-14 16:00:00 20.9 13 Oeste 29 Oeste 0 919.5 -0.9 34
2019-04-14 15:00:00 19.8 14 Oeste 29 Oeste 0 919.7 -1 36
2019-04-14 14:00:00 18.9 15 Oeste 30 Sudoeste 0 920 -0.9 37
2019-04-14 13:00:00 18.7 11 Oeste 19 Oeste 0 920.4 -0.2 35
2019-04-14 12:00:00 16.9 6 Oeste 15 Sur 0 920.7 0.1 49
2019-04-14 11:00:00 15.9 7 Oeste 13 Oeste 0 920.9 0.5 54
2019-04-14 10:00:00 14.5 4 Norte 7 Noroeste 0 920.6 0.2 52
2019-04-14 09:00:00 10.5 0 Calma 13 Sudeste 0 920.6 0.1 64
2019-04-14 08:00:00 8.3 6 Sudeste 14 Sudeste 0 920.4 -0.4 69
2019-04-14 07:00:00 8.4 5 Sudeste 12 Sudeste 0 920.4 -0.1 68
2019-04-14 06:00:00 9 3 Este 15 Sudeste 0 920.5 -0.4 65
2019-04-14 05:00:00 9.8 4 Sudeste 12 Sudeste 0 920.8 -0.5 61
2019-04-14 04:00:00 10.8 6 Sudeste 12 Sur 0 920.5 -1.1 57
2019-04-14 03:00:00 11 5 Sudeste 13 Sudeste 0 920.9 -0.5 54
2019-04-14 02:00:00 10.7 5 Sudeste 11 Sur 0 921.3 -0.1 55
2019-04-14 01:00:00 11.3 4 Sudeste 9 Sudeste 0 921.6 0.7 52
2019-04-14 00:00:00 12.4 2 Nordeste 7 Este 0 921.4 1.4 48
2019-04-13 23:00:00 13.1 4 Sudeste 6 Este 0 921.4 2 48
2019-04-13 22:00:00 14.4 2 Oeste 20 Sudoeste 0 920.9 1.7 45
2019-04-13 21:00:00 16 7 Sudoeste 22 Sudoeste 0 920 0.8 39
2019-04-13 20:00:00 18.6 10 Oeste 30 Noroeste 0 919.4 -0.2 30
2019-04-13 19:00:00 19.7 14 Oeste 31 Oeste 0 919.2 -0.7 24
2019-04-13 18:00:00 20 12 Oeste 28 Oeste 0 919.2 -1.1 23
2019-04-13 17:00:00 19.8 10 Oeste 29 Noroeste 0 919.6 -1.1 23
2019-04-13 16:00:00 19.6 15 Noroeste 37 Oeste 0 919.9 -1.3 28
2019-04-13 15:00:00 18.3 14 Noroeste 25 Oeste 0 920.3 -1.2 32
2019-04-13 14:00:00 17.2 8 Noroeste 25 Oeste 0 920.7 -0.8 37
2019-04-13 13:00:00 15.5 8 Sudoeste 26 Sudoeste 0 921.2 0.1 34
2019-04-13 12:00:00 15 5 Oeste 17 Oeste 0 921.5 0.7 38
2019-04-13 11:00:00 13.7 8 Oeste 15 Noroeste 0 921.5 1.3 46
2019-04-13 10:00:00 13.2 0 Calma 6 Sudeste 0 921.1 1.4 44
2019-04-13 09:00:00 8.2 7 Este 17 Sudeste 0 920.8 1.4 62
2019-04-13 08:00:00 5.6 12 Sudeste 19 Sudeste 0 920.2 0.9 68
2019-04-13 07:00:00 6.3 12 Sudeste 17 Sudeste 0 919.7 0.3 65
2019-04-13 06:00:00 6 10 Sudeste 16 Sudeste 0 919.4 -0.4 66
2019-04-13 05:00:00 6.8 9 Sudeste 15 Sudeste 0 919.3 -0.7 62
2019-04-13 04:00:00 7.5 10 Sudeste 17 Sudeste 0 919.4 -0.5 61
2019-04-13 03:00:00 7.8 10 Sudeste 16 Sudeste 0 919.8 0.1 58
2019-04-13 02:00:00 7.9 9 Sudeste 19 Sudeste 0 920 0.6 57
2019-04-13 01:00:00 8.3 10 Sudeste 17 Sudeste 0 919.9 0.9 55
2019-04-13 00:00:00 8 8 Sudeste 17 Sudeste 0 919.7 1 58
2019-04-12 23:00:00 8.9 10 Sudeste 19 Sudeste 0 919.4 1 54
2019-04-12 22:00:00 9.4 11 Sudeste 17 Sudeste 0 919 0.5 53
2019-04-12 21:00:00 12.5 3 Sudoeste 15 Oeste 0 918.7 0.2 42
2019-04-12 20:00:00 14.8 7 Oeste 23 Noroeste 0 918.4 -0.3 34
2019-04-12 19:00:00 15.8 13 Noroeste 30 Norte 0 918.5 -0.6 30
2019-04-12 18:00:00 16.2 13 Noroeste 30 Noroeste 0 918.5 -0.8 32
2019-04-12 17:00:00 16.1 16 Noroeste 36 Noroeste 0 918.7 -0.8 31
2019-04-12 16:00:00 16.4 14 Noroeste 32 Oeste 0 919.1 -0.6 32
2019-04-12 15:00:00 14.7 14 Oeste 30 Sur 0 919.3 -0.8 35
2019-04-12 14:00:00 14.3 10 Oeste 32 Oeste 0 919.5 -0.4 34
2019-04-12 13:00:00 13 9 Noroeste 21 Noroeste 0 919.7 0 42
2019-04-12 12:00:00 13.2 10 Norte 27 Noroeste 0 920.1 0.4 41
2019-04-12 11:00:00 12.2 14 Noroeste 22 Norte 0 919.9 0.6 45
2019-04-12 10:00:00 9.3 4 Sudoeste 9 Oeste 0 919.7 0.8 53
2019-04-12 09:00:00 6.6 3 Sudeste 10 Sudeste 0 919.7 0.8 66
2019-04-12 08:00:00 3.6 9 Sudeste 17 Sudeste 0 919.3 0.3 73
2019-04-12 07:00:00 3.5 13 Sudeste 17 Sudeste 0 918.9 -0.2 75
2019-04-12 06:00:00 3.9 11 Sudeste 16 Sudeste 0 918.9 -0.5 73
2019-04-12 05:00:00 4.3 11 Sudeste 18 Sudeste 0 919 -0.7 71
2019-04-12 04:00:00 4.4 9 Sudeste 18 Sudeste 0 919.1 -0.5 71
2019-04-12 03:00:00 5.2 11 Sudeste 17 Sudeste 0 919.4 -0.2 67
2019-04-12 02:00:00 5.5 11 Sudeste 19 Sudeste 0 919.7 0.4 67
2019-04-12 01:00:00 5.9 10 Sudeste 17 Sudeste 0 919.6 0.7 64
2019-04-12 00:00:00 6.5 10 Sudeste 15 Sudeste 0 919.6 1.4 60
2019-04-11 23:00:00 7.6 10 Sudeste 15 Sudeste 0 919.3 1.2 57
2019-04-11 22:00:00 8.9 4 Sudoeste 12 Sudeste 0 918.9 0.8 48
2019-04-11 21:00:00 10.6 6 Noroeste 28 Noroeste 0 918.2 0.1 43
2019-04-11 20:00:00 12.1 14 Noroeste 27 Norte 0 918.1 0 39
2019-04-11 19:00:00 13.6 14 Noroeste 30 Noroeste 0 918.1 -0.3 38
2019-04-11 18:00:00 14.1 15 Noroeste 32 Noroeste 0 918.1 -0.5 35
2019-04-11 17:00:00 14.8 15 Noroeste 30 Noroeste 0 918.1 -0.7 37
2019-04-11 16:00:00 13 12 Noroeste 28 Oeste 0 918.4 -0.8 46
2019-04-11 15:00:00 13.4 10 Noroeste 25 Norte 0 918.6 -0.8 44
2019-04-11 14:00:00 12.7 8 Norte 25 Noroeste 0 918.8 -0.6 47
2019-04-11 13:00:00 11 5 Noroeste 17 Oeste 0 919.2 -0.1 61
2019-04-11 12:00:00 9.5 3 Noroeste 14 Sudoeste 0 919.4 0.3 69
2019-04-11 11:00:00 7.2 4 Oeste 13 Oeste 0 919.4 0.9 79
2019-04-11 10:00:00 5.7 5 Oeste 10 Noroeste 0 919.3 1.3 92
2019-04-11 09:00:00 5 4 Noroeste 7 Noroeste 0 919.1 1 93
2019-04-11 08:00:00 4.2 0 Calma 5 Oeste 0 918.5 0.6 92
2019-04-11 07:00:00 4.3 2 Sudeste 5 Noroeste 0 918 0.3 91
2019-04-11 06:00:00 5 2 Oeste 6 Sur 0 918.1 0.1 90
2019-04-11 05:00:00 5.2 5 Sudeste 9 Oeste 0 917.9 -0.3 89
2019-04-11 04:00:00 5.2 2 Sudoeste 10 Sudeste 0 917.7 -0.5 87
2019-04-11 03:00:00 5.1 7 Sudeste 14 Sudeste 0 918 0 88
2019-04-11 02:00:00 4 9 Sudeste 13 Este 0 918.2 0.2 87
2019-04-11 01:00:00 5.1 5 Este 12 Sudeste 0 918.2 0.5 85
2019-04-11 00:00:00 4.9 6 Sudeste 15 Sudeste 0 918 1.4 85
2019-04-10 23:00:00 4.9 7 Sudeste 15 Sudeste 0 918 1.6 87
2019-04-10 22:00:00 4.7 8 Sudeste 15 Sudeste 0 917.7 2.2 85
2019-04-10 21:00:00 6 5 Sudeste 25 Oeste 0 916.6 1.2 81
2019-04-10 20:00:00 7 17 Noroeste 30 Oeste 0 916.4 1.6 83
2019-04-10 19:00:00 6.7 10 Este 18 Este 0 915.5 0 84
2019-04-10 18:00:00 6.7 3 Norte 35 Norte 0.8 915.4 -0.7 79
2019-04-10 17:00:00 10.2 15 Sudoeste 35 Oeste 0 914.8 -1.7 63
2019-04-10 16:00:00 10.2 12 Sudoeste 36 Sudoeste 0 915.5 -1.1 62
2019-04-10 15:00:00 9.7 14 Sudoeste 35 Sudoeste 0 916.1 -0.9 62
2019-04-10 14:00:00 8 12 Oeste 29 Oeste 0 916.5 -0.6 72
2019-04-10 13:00:00 7.8 12 Oeste 27 Oeste 0 916.6 -0.2 75
2019-04-10 12:00:00 7 14 Oeste 26 Oeste 0 917 0.4 75
2019-04-10 11:00:00 5.9 14 Oeste 24 Oeste 0 917.1 0.9 80
2019-04-10 10:00:00 6 12 Oeste 25 Oeste 0 916.8 0.9 84
2019-04-10 09:00:00 5.6 10 Oeste 22 Oeste 0 916.6 0.5 86
2019-04-10 08:00:00 5.7 11 Oeste 21 Oeste 0 916.2 -0.1 86
2019-04-10 07:00:00 6.1 12 Oeste 25 Oeste 0 915.9 -0.5 90
2019-04-10 06:00:00 6.3 10 Oeste 28 Oeste 0 916.1 -0.5 90
2019-04-10 05:00:00 6.6 17 Oeste 32 Oeste 0 916.3 -0.5 86
2019-04-10 04:00:00 6.6 13 Oeste 25 Sudoeste 0 916.4 -0.4 89
2019-04-10 03:00:00 6.8 8 Oeste 37 Sudoeste 0 916.6 -0.3 89
2019-04-10 02:00:00 7.2 14 Sudoeste 44 Sudoeste 0 916.8 -0.2 90
2019-04-10 01:00:00 7.4 15 Oeste 35 Sudoeste 0 916.8 0.2 89
2019-04-10 00:00:00 7.6 13 Sudoeste 27 Sudoeste 0 916.9 1 84
2019-04-09 23:00:00 7.5 12 Sudoeste 26 Sudoeste 0 917 1.4 84
2019-04-09 22:00:00 7.8 13 Sudoeste 26 Sudoeste 0 916.6 1.4 81
2019-04-09 21:00:00 7.8 9 Sudoeste 24 Sudoeste 0 915.9 0.6 84
2019-04-09 20:00:00 9 10 Oeste 41 Sudoeste 2.8 915.6 -0.4 87
2019-04-09 19:00:00 8.9 13 Sudoeste 39 Sudoeste 0.6 915.2 -1.2 77
2019-04-09 18:00:00 9 12 Sudoeste 40 Sudoeste 0 915.3 -0.9 74
2019-04-09 17:00:00 8.7 12 Sudoeste 33 Noroeste 0.8 916 -0.3 78
2019-04-09 16:00:00 8.2 25 Oeste 53 Oeste 0 916.4 -0.6 76
2019-04-09 15:00:00 9.7 22 Sudoeste 45 Sudoeste 0 916.2 -1.2 63
2019-04-09 14:00:00 11.5 18 Sudoeste 49 Sudoeste 0 916.3 -1.2 56
2019-04-09 13:00:00 9 22 Oeste 39 Oeste 0 917 -0.8 68
2019-04-09 12:00:00 7.7 16 Sudoeste 36 Oeste 0 917.4 -0.1 79
2019-04-09 11:00:00 7.4 13 Sudoeste 32 Sudoeste 0 917.5 0.3 79
2019-04-09 10:00:00 6.1 12 Oeste 26 Oeste 0 917.8 0.8 93
2019-04-09 09:00:00 5.8 12 Oeste 24 Sudoeste 0 917.5 0.6 94
2019-04-09 08:00:00 5.7 7 Oeste 18 Oeste 0 917.2 0.3 91
2019-04-09 07:00:00 5.8 10 Oeste 26 Oeste 0 917 0.1 89
2019-04-09 06:00:00 6 12 Oeste 29 Oeste 0 916.9 0.1 89
2019-04-09 05:00:00 6.6 14 Oeste 28 Oeste 0 916.9 0.2 90
2019-04-09 04:00:00 7.1 9 Sudoeste 20 Sudoeste 0 916.9 0 93
2019-04-09 03:00:00 7.5 11 Oeste 21 Sudoeste 0 916.8 0.3 94
2019-04-09 02:00:00 7.7 8 Sudoeste 18 Oeste 0 916.7 1 93
2019-04-09 01:00:00 7.3 3 Norte 12 Sudeste 0.2 916.9 0.8 90
2019-04-09 00:00:00 7.6 7 Sur 39 Oeste 12.4 916.5 0.6 93
2019-04-08 23:00:00 8.9 3 Sudeste 22 Sudoeste 0 915.7 0.1 92
2019-04-08 22:00:00 8.8 10 Sudoeste 25 Sudoeste 2.2 916.1 0.5 88
2019-04-08 21:00:00 9.6 14 Oeste 35 Oeste 6 915.9 0.1 89
2019-04-08 20:00:00 10.3 8 Sudoeste 32 Sudoeste 0.4 915.6 -0.8 88
2019-04-08 19:00:00 10.7 10 Sudoeste 24 Sudoeste 0 915.6 -0.8 83
2019-04-08 18:00:00 11 10 Sudoeste 38 Sudoeste 0.2 915.8 -0.8 79
2019-04-08 17:00:00 10.1 14 Sudoeste 45 Sudoeste 0.6 916.4 -0.1 87
2019-04-08 16:00:00 10.5 17 Sudoeste 37 Sudoeste 1.4 916.4 -0.5 90
2019-04-08 15:00:00 10.5 20 Oeste 37 Sudoeste 1 916.6 -0.5 85
2019-04-08 14:00:00 12 14 Sudoeste 36 Sudoeste 0 916.5 -0.4 71
2019-04-08 13:00:00 10.8 13 Sudoeste 31 Sudoeste 0 916.9 0.1 80
2019-04-08 12:00:00 9.8 12 Sudoeste 31 Sudoeste 0 917.1 0.3 86
2019-04-08 11:00:00 9.2 15 Oeste 30 Oeste 0 916.9 0.6 92
2019-04-08 10:00:00 8.8 12 Oeste 25 Oeste 0 916.8 1 94
2019-04-08 09:00:00 8.6 11 Oeste 41 Oeste 0.2 916.8 0.8 94
2019-04-08 08:00:00 8.6 19 Sudoeste 38 Oeste 0.6 916.3 0 95
2019-04-08 07:00:00 8.5 6 Sudoeste 21 Sudoeste 0 915.8 -0.9 95
2019-04-08 06:00:00 8.3 13 Sudoeste 31 Oeste 0 916 -0.9 94
2019-04-08 05:00:00 8.3 12 Sudoeste 32 Oeste 0 916.3 -0.7 95
2019-04-08 04:00:00 8.4 10 Sudoeste 35 Oeste 0 916.7 -0.2 94
2019-04-08 03:00:00 8.5 12 Sudoeste 24 Sudoeste 0.2 916.9 -0.1 93
2019-04-08 02:00:00 8.1 4 Noroeste 12 Oeste 1.2 917 0.1 92
2019-04-08 01:00:00 8.3 3 Norte 18 Sudoeste 0 916.9 0 90
2019-04-08 00:00:00 8.2 5 Oeste 19 Sur 0 917 0.4 87
2019-04-07 23:00:00 8 6 Oeste 22 Sudoeste 0 916.9 0.5 85
2019-04-07 22:00:00 8.1 11 Sudoeste 32 Sudoeste 0 916.9 1.2 82
2019-04-07 21:00:00 8.2 7 Sudoeste 26 Sudoeste 0 916.6 1.3 79
2019-04-07 20:00:00 8.6 15 Oeste 28 Oeste 0 916.4 1 72
2019-04-07 19:00:00 9.2 12 Oeste 32 Sudoeste 0 915.7 0.4 70
2019-04-07 18:00:00 10.1 19 Oeste 39 Sudoeste 0 915.3 0.1 63
2019-04-07 17:00:00 10.3 17 Oeste 42 Oeste 0 915.4 0 67
2019-04-07 16:00:00 9.1 22 Sudoeste 43 Sudoeste 0 915.3 0.1 69
2019-04-07 15:00:00 9.2 20 Sudoeste 37 Sudoeste 0.2 915.2 0.4 70
2019-04-07 14:00:00 8.1 15 Oeste 29 Oeste 0 915.4 1.4 74
2019-04-07 13:00:00 6 12 Sudoeste 31 Sudoeste 0 915.2 1.9 85
2019-04-07 12:00:00 5.3 17 Sudoeste 35 Sudoeste 0.2 914.8 2.3 91
2019-04-07 11:00:00 4.9 13 Sudoeste 34 Oeste 0.4 914 2.4 94
2019-04-07 10:00:00 4.6 14 Oeste 34 Oeste 0.2 913.3 2.6 94
2019-04-07 09:00:00 4.5 21 Oeste 36 Oeste 0 912.5 2.5 94
2019-04-07 08:00:00 4.4 17 Oeste 48 Sudoeste 0.2 911.6 1.5 93
2019-04-07 07:00:00 4.5 17 Oeste 44 Oeste 1 910.7 0.3 94
2019-04-07 06:00:00 4.5 19 Oeste 45 Sudoeste 1 910 -0.5 93
2019-04-07 05:00:00 4.4 17 Oeste 40 Sudoeste 0.2 910.1 -0.8 93
2019-04-07 04:00:00 4.3 14 Oeste 31 Sudoeste 0 910.4 -0.5 93
2019-04-07 03:00:00 4 12 Sudoeste 30 Sudoeste 0 910.5 -0.1 91
2019-04-07 02:00:00 4 15 Sudoeste 35 Sudoeste 0 910.9 0.4 91
2019-04-07 01:00:00 4.1 17 Sudoeste 34 Sudoeste 0 910.9 0.6 89
2019-04-07 00:00:00 4.3 12 Sudoeste 36 Sudoeste 0 910.6 1 88
2019-04-06 23:00:00 4.3 12 Sudoeste 33 Oeste 0 910.5 1.2 86
2019-04-06 22:00:00 4.5 14 Sudoeste 40 Sudoeste 0 910.3 1.4 82
2019-04-06 21:00:00 3.8 6 Sudoeste 26 Sudoeste 0.2 909.6 2 84
2019-04-06 20:00:00 3.7 8 Sudoeste 23 Sudoeste 0.2 909.3 1.4 87
2019-04-06 19:00:00 3 5 Sudoeste -- -- 2 908.9 0.7 86
2019-04-06 18:00:00 6.5 13 Sudoeste 40 Sudoeste 0 907.6 -0.4 75
2019-04-06 17:00:00 6.7 12 Sudoeste 38 Sudoeste 0 907.9 -0.9 77
2019-04-06 16:00:00 5.9 9 Oeste 46 Oeste 2.2 908.2 -0.7 90
2019-04-06 15:00:00 6.6 13 Sudoeste 40 Sudoeste 0.2 908 -0.7 74
2019-04-06 14:00:00 5.8 18 Sudoeste 50 Sudoeste 0 908.8 0 80
2019-04-06 13:00:00 4.3 17 Sudoeste 39 Sudoeste 2 908.9 0 89
2019-04-06 12:00:00 4.4 10 Sudoeste 31 Sudoeste 1.2 908.7 0.2 90
2019-04-06 11:00:00 4.1 13 Sudoeste 33 Sudoeste 0.6 908.8 0.7 91
2019-04-06 10:00:00 3.3 15 Oeste 32 Sudoeste 2.8 908.9 1.4 91
2019-04-06 09:00:00 3.6 14 Sudoeste 35 Sudoeste 0 908.5 1.8 90
2019-04-06 08:00:00 3.2 11 Sudoeste 40 Sudoeste 0.2 908.1 1.7 88
2019-04-06 07:00:00 3.2 14 Sudoeste 44 Sudoeste 0 907.5 0.7 89
2019-04-06 06:00:00 3 11 Sudoeste 31 Oeste 0 906.7 -0.2 92
2019-04-06 05:00:00 3.1 14 Oeste 31 Sudoeste 0 906.4 -0.5 90
2019-04-06 04:00:00 3.3 11 Sudoeste 33 Sudoeste 0 906.8 0.3 90
2019-04-06 03:00:00 3.2 16 Oeste 37 Sudoeste 0.4 906.9 0.7 91
2019-04-06 02:00:00 3.4 21 Sudoeste 42 Oeste 0.8 906.9 0.9 89
2019-04-06 01:00:00 4.4 16 Sudoeste 33 Sudoeste 0 906.5 0.9 86
2019-04-06 00:00:00 4.2 11 Sudoeste 34 Sudoeste 0 906.2 1.4 83
2019-04-05 23:00:00 3.7 5 Noroeste 25 Sudoeste 0 906 1.7 82
2019-04-05 22:00:00 3.6 8 Sudoeste 35 Sudoeste 0 905.6 1.6 79
2019-04-05 21:00:00 4.1 14 Sudoeste 44 Sudoeste 0 904.8 2.1 76
2019-04-05 20:00:00 4.6 13 Sudoeste 32 Sudoeste 0.4 904.3 0.7 75
2019-04-05 19:00:00 3.9 25 Oeste 56 Sudoeste 1.2 904 0.9 84
2019-04-05 18:00:00 6.3 11 Sudoeste 32 Sudoeste 0 902.7 -1.3 81
2019-04-05 17:00:00 4.5 5 Oeste 58 Oeste 2.4 903.6 -1 88
2019-04-05 16:00:00 8.1 11 Sur -- -- 0 903.1 -1.9 66
2019-04-05 15:00:00 6 17 Sur 49 Sudeste 0 904 -0.6 74
2019-04-05 14:00:00 5.7 13 Sur 36 Sudoeste 1.8 904.6 0.5 78
2019-04-05 13:00:00 6 13 Sudoeste 38 Sudoeste 1.4 905 0.4 80
2019-04-05 12:00:00 7.7 15 Oeste 28 Sudoeste 0 904.6 -0.1 66
2019-04-05 11:00:00 9.1 11 Sur 26 Sur 0 904.1 -0.7 53
2019-04-05 10:00:00 6.6 14 Sur 27 Sur 0 904.6 -0.3 63
2019-04-05 09:00:00 6.5 10 Sur 30 Sur 0 904.7 -0.3 62
2019-04-05 08:00:00 6.1 6 Sur 20 Sudoeste 0 904.8 -0.2 61
2019-04-05 07:00:00 5.9 6 Oeste 29 Sudoeste 0 904.9 -0.8 65
2019-04-05 06:00:00 5.9 12 Sudoeste 35 Sudoeste 0 905 -0.9 67
2019-04-05 05:00:00 6.1 10 Sur 33 Sudoeste 0 905 -0.6 66
2019-04-05 04:00:00 6.3 13 Sur 32 Sur 0 905.7 0.3 59
2019-04-05 03:00:00 6.6 15 Sudoeste 44 Sudoeste 0 905.9 0.7 51
2019-04-05 02:00:00 7.5 10 Sudoeste 36 Sudoeste 0 905.6 0.5 48
2019-04-05 01:00:00 8.6 15 Sudoeste 46 Sudoeste 0 905.4 0.5 41
2019-04-05 00:00:00 9.6 13 Sur 38 Sudoeste 0 905.2 0.7 35
2019-04-04 23:00:00 9.9 11 Sudoeste 31 Sudoeste 0 905.1 0.9 33
2019-04-04 22:00:00 10.3 9 Sudoeste 26 Sudoeste 0 904.9 0.8 32
2019-04-04 21:00:00 11.5 8 Sudoeste 36 Sudoeste 0 904.5 0.3 28
2019-04-04 20:00:00 13.8 13 Sudoeste 31 Sudoeste 0 904.2 -0.3 25
2019-04-04 19:00:00 15.3 14 Sudoeste 29 Sudoeste 0 904.1 -0.8 22
2019-04-04 18:00:00 15.5 19 Sudoeste 37 Oeste 0 904.2 -1.5 20
2019-04-04 17:00:00 15.4 10 Sudoeste 36 Sudoeste 0 904.5 -1.7 27
2019-04-04 16:00:00 15.2 17 Oeste 30 Sudoeste 0 904.9 -1.6 27
2019-04-04 15:00:00 14.8 11 Noroeste 26 Noroeste 0 905.7 -1 28
2019-04-04 14:00:00 13.9 11 Oeste 25 Oeste 0 906.2 -0.2 27
2019-04-04 13:00:00 14 11 Noroeste 27 Noroeste 0 906.5 0.1 32
2019-04-04 12:00:00 12.4 14 Norte 32 Norte 0 906.7 0.6 32
2019-04-04 11:00:00 11.5 14 Norte 31 Norte 0 906.4 0.8 33
2019-04-04 10:00:00 9.4 4 Nordeste 21 Nordeste 0 906.4 1.1 33
2019-04-04 09:00:00 7 6 Nordeste 24 Nordeste 0 906.1 1 35
2019-04-04 08:00:00 5.3 5 Nordeste 21 Este 0 905.6 0.5 40
2019-04-04 07:00:00 3.8 3 Noroeste 13 Sudeste 0 905.3 0.2 53
2019-04-04 06:00:00 4.1 6 Sudeste 10 Sudeste 0 905.1 -0.4 59
2019-04-04 05:00:00 5.8 3 Noroeste 14 Oeste 0 905.1 -0.9 53
2019-04-04 04:00:00 7.5 4 Noroeste 12 Noroeste 0 905.1 -1.4 47
2019-04-04 03:00:00 8.6 6 Oeste 14 Norte 0 905.5 -1.2 46
2019-04-04 02:00:00 8.9 3 Noroeste 8 Oeste 0 906 -0.8 48
2019-04-04 01:00:00 9.7 5 Norte 15 Oeste 0 906.5 0.3 46
2019-04-04 00:00:00 10.6 5 Sudoeste 10 Sudoeste 0 906.7 1.3 53
2019-04-03 23:00:00 11.1 5 Oeste 25 Oeste 0 906.8 1.6 49
2019-04-03 22:00:00 12.2 12 Noroeste 29 Noroeste 0 906.2 0.8 47
2019-04-03 21:00:00 14 18 Oeste 36 Sudoeste 0 905.4 -0.5 43
2019-04-03 20:00:00 14.8 18 Oeste 42 Oeste 0 905.2 -1.3 38
2019-04-03 19:00:00 15.3 18 Sudoeste 44 Sudoeste 0 905.4 -1.9 39
2019-04-03 18:00:00 15.8 22 Oeste 40 Oeste 0 905.9 -2.3 39
2019-04-03 17:00:00 16.6 15 Sudoeste 45 Oeste 0 906.5 -2.6 37
2019-04-03 16:00:00 16.8 21 Sudoeste 43 Sudoeste 0 907.3 -2.5 38
2019-04-03 15:00:00 16.3 19 Sudoeste 44 Sudoeste 0 908.2 -2.6 39
2019-04-03 14:00:00 15.7 15 Sudoeste 36 Oeste 0 909.1 -2.2 45
2019-04-03 13:00:00 14.8 11 Sudoeste 32 Oeste 0 909.8 -1.9 54
2019-04-03 12:00:00 13.4 16 Sudoeste 31 Sudoeste 0 910.8 -1.4 61
2019-04-03 11:00:00 11.3 12 Oeste 24 Sudoeste 0 911.3 -1.1 75
2019-04-03 10:00:00 10.9 6 Sudoeste 22 Sudoeste 0 911.7 -1 77
2019-04-03 09:00:00 9.1 5 Oeste 20 Sudoeste 0 912.2 -0.7 86
2019-04-03 08:00:00 8 3 Sudeste 8 Sur 0 912.4 -1.1 86
2019-04-03 07:00:00 7.8 2 Nordeste 12 Sudeste 0 912.7 -1.6 84
2019-04-03 06:00:00 8.1 7 Sudeste 12 Sudeste 0 912.9 -2.1 83
2019-04-03 05:00:00 8.7 7 Sudeste 10 Sudeste 0 913.5 -1.9 79
2019-04-03 04:00:00 9.2 5 Sudeste 14 Sudeste 0 914.3 -1.5 76
2019-04-03 03:00:00 9.9 5 Sudeste 12 Sudeste 0 915 -1.2 73
2019-04-03 02:00:00 9.8 5 Sudeste 9 Sudeste 0 915.4 -0.9 74
2019-04-03 01:00:00 10.8 5 Sudeste 13 Sudeste 0 915.8 -0.5 71
2019-04-03 00:00:00 10.4 6 Sudeste 15 Sudeste 0 916.2 0.2 75
2019-04-02 23:00:00 9.9 9 Sudeste 15 Sudeste 0 916.3 0.9 80
2019-04-02 22:00:00 10.6 5 Sudeste 24 Noroeste 2 916.3 1.1 77
2019-04-02 21:00:00 13.1 10 Oeste 28 Noroeste 0 916 0.4 64
2019-04-02 20:00:00 14.3 6 Sudoeste 25 Oeste 0 915.4 -0.7 51
2019-04-02 19:00:00 16.1 7 Sudoeste 22 Sudoeste 0 915.2 -1.5 50
2019-04-02 18:00:00 16.4 12 Sudoeste 23 Oeste 0 915.6 -1.8 46
2019-04-02 17:00:00 15.6 7 Sudoeste 18 Oeste 0 916.1 -1.9 46
2019-04-02 16:00:00 15 6 Sudeste 17 Oeste 0 916.7 -1.9 50
2019-04-02 15:00:00 13.7 3 Norte 9 Sudoeste 0 917.4 -1.4 65
2019-04-02 14:00:00 11.9 5 Sur 13 Este 0 918 -0.5 67
2019-04-02 13:00:00 11.2 3 Este 6 Este 0 918.6 0.4 72
2019-04-02 12:00:00 10.6 4 Oeste 11 Oeste 0 918.8 0.8 77
2019-04-02 11:00:00 9.5 5 Oeste 18 Oeste 0 918.5 0.9 85
2019-04-02 10:00:00 9.1 8 Oeste 14 Oeste 0 918.2 1.1 90
2019-04-02 09:00:00 9 6 Oeste 18 Sudoeste 0 918 0.5 86
2019-04-02 08:00:00 8.8 8 Sudoeste 17 Sudoeste 0 917.6 -0.1 88
2019-04-02 07:00:00 9.1 5 Sur 12 Sudeste 0 917.1 -0.8 85
2019-04-02 06:00:00 9.2 0 Calma 9 Sur 0 917.5 -0.6 86
2019-04-02 05:00:00 9.3 4 Sur 16 Sudeste 0 917.7 -0.6 84
2019-04-02 04:00:00 9.3 8 Sur 21 Sudoeste 0 917.9 -0.5 85
2019-04-02 03:00:00 9.7 3 Sur 9 Sudeste 0 918.1 0 87
2019-04-02 02:00:00 9.7 4 Noroeste 15 Sudoeste 1.4 918.3 0.3 87
2019-04-02 01:00:00 10.1 5 Sur 16 Sudoeste 1.4 918.4 1.1 83
2019-04-02 00:00:00 10.8 2 Noroeste 9 Sudeste 0 918.1 1.9 78
2019-04-01 23:00:00 11 5 Sudeste 10 Oeste 0 918 3 77
2019-04-01 22:00:00 11.2 6 Sur 15 Este 0 917.3 2.3 74
2019-04-01 21:00:00 11.8 5 Sudeste 28 Sudoeste 0.2 916.2 1.1 74
2019-04-01 20:00:00 13.8 0 Calma 15 Norte 0 915 -0.1 58
2019-04-01 19:00:00 15.5 3 Noroeste 17 Norte 0 915 -0.4 52
2019-04-01 18:00:00 17.3 6 Norte 22 Noroeste 0 915.1 -0.6 51
2019-04-01 17:00:00 14.9 7 Noroeste 22 Norte 0 915.1 -0.9 59
2019-04-01 16:00:00 14.6 10 Oeste 22 Oeste 0 915.4 -0.8 61
2019-04-01 15:00:00 12.7 12 Oeste 23 Oeste 0 915.7 -0.7 68
2019-04-01 14:00:00 13.1 7 Sudoeste 25 Oeste 0 916 0.2 68
2019-04-01 13:00:00 12.4 9 Oeste 14 Sur 0 916.2 1 70
2019-04-01 12:00:00 11.4 9 Sur 17 Sudeste 0 916.4 1.8 72
2019-04-01 11:00:00 11.3 2 Oeste 13 Oeste 0 915.8 1.3 74
2019-04-01 10:00:00 11.4 4 Oeste 9 Sudoeste 0 915.2 1.3 75
2019-04-01 09:00:00 9.2 3 Noroeste 6 Este 0 914.6 0.7 87
2019-04-01 08:00:00 8.9 2 Sur 5 Sudeste 0 914.5 0.6 85
2019-04-01 07:00:00 8.8 4 Sudeste 11 Sudeste 0 913.9 -0.1 83
2019-04-01 06:00:00 9.2 0 Calma 7 Sudeste 0 913.9 -0.2 82
2019-04-01 05:00:00 9.3 3 Este 12 Sur 0 913.9 -0.2 82
2019-04-01 04:00:00 9.2 3 Nordeste 7 Noroeste 0 914 0.1 90
2019-04-01 03:00:00 9.3 3 Oeste 9 Sudeste 0 914.1 0.1 89
2019-04-01 02:00:00 9.2 0 Calma 9 Sudeste 0 914.1 0.2 89
2019-04-01 01:00:00 9.3 5 Noroeste 8 Noroeste 0 913.9 0.6 91
2019-04-01 00:00:00 9.3 2 Sudoeste 8 Noroeste 0 914 1 90
2019-03-31 23:00:00 9.3 0 Calma 12 Noroeste 0 913.9 1.5 90
2019-03-31 22:00:00 9.5 3 Noroeste 9 Este 0.2 913.3 1.1 87
2019-03-31 21:00:00 9.9 5 Sudeste 13 Sur 0.2 913 0.5 79
2019-03-31 20:00:00 10.8 2 Sudeste 16 Sudeste 0 912.4 -0.2 69
2019-03-31 19:00:00 10.9 7 Sudeste 12 Sudeste 0 912.2 -0.7 68
2019-03-31 18:00:00 11.1 5 Sudeste 13 Sudeste 0 912.5 -0.8 69
2019-03-31 17:00:00 11.2 7 Este 14 Este 0 912.6 -1.1 64
2019-03-31 16:00:00 10.8 2 Sur 17 Este 0 912.9 -1.3 68
2019-03-31 15:00:00 10 10 Este 27 Sudeste 0 913.3 -1.1 66
2019-03-31 14:00:00 10 5 Este 27 Sudeste 0 913.7 -0.5 68
2019-03-31 13:00:00 9.1 9 Sudeste 22 Sudeste 0 914.2 0 70
2019-03-31 12:00:00 9.2 7 Sudeste 27 Sudeste 0 914.4 0 70
2019-03-31 11:00:00 9.2 2 Oeste 10 Nordeste 0.8 914.2 -0.3 88
2019-03-31 10:00:00 8.4 3 Noroeste 6 Noroeste 1 914.2 -0.3 91
2019-03-31 09:00:00 8 3 Noroeste 6 Noroeste 1.4 914.4 -0.4 89
2019-03-31 08:00:00 8 2 Sudeste 5 Este 1.4 914.5 -0.7 89
2019-03-31 07:00:00 8.2 3 Este 7 Este 1.2 914.5 -1.4 87
2019-03-31 06:00:00 8.6 0 Calma 13 Este 0.6 914.8 -1.5 82
2019-03-31 05:00:00 8.8 6 Este 12 Este 0.6 915.2 -1.3 77
2019-03-31 03:00:00 10.4 20 Sudeste 48 Sudeste 0 916.3 -0.4 67
2019-03-31 01:00:00 11 27 Sudeste 47 Sudeste 0 916.5 -0.4 47
2019-03-31 00:00:00 12 15 Sudeste 42 Sudeste 0 916.6 0 51
2019-03-30 23:00:00 12.3 18 Sudeste 37 Sudeste 0 916.7 0.3 51
2019-03-30 22:00:00 12.4 15 Sudeste 42 Sudeste 0 916.9 0.8 49
2019-03-30 21:00:00 12.4 23 Sudeste 48 Sudeste 0 916.6 0.4 49
2019-03-30 20:00:00 13.2 25 Este 60 Este 0 916.4 0.5 47
2019-03-30 19:00:00 14.4 26 Sudeste 54 Sudeste 0 916.1 0 43
2019-03-30 18:00:00 16.2 23 Sudeste 45 Sudeste 0 916.2 -0.9 38
2019-03-30 17:00:00 17.7 22 Este 40 Este 0 915.9 -2 33
2019-03-30 16:00:00 18.9 15 Este 31 Este 0 916.1 -2.8 30
2019-03-30 15:00:00 19.6 5 Sudeste 18 Sudeste 0 917.1 -2.7 28
2019-03-30 14:00:00 18.8 3 Norte 18 Sudeste 0 917.9 -2.4 30
2019-03-30 13:00:00 17.5 6 Este 19 Este 0 918.9 -1.5 31
2019-03-30 12:00:00 16.1 5 Nordeste 18 Sudeste 0 919.8 -0.8 35
2019-03-30 11:00:00 14.9 7 Sudeste 17 Sudeste 0 920.3 -0.1 35
2019-03-30 10:00:00 14.2 3 Norte 8 Oeste 0 920.4 -0.3 34
2019-03-30 09:00:00 11.2 0 Calma 5 Norte 0 920.6 0.1 38
2019-03-30 08:00:00 7.4 0 Calma 17 Este 0 920.4 -0.2 49
2019-03-30 07:00:00 5.1 0 Calma 4 Este 0 920.7 -0.4 54
2019-03-30 06:00:00 6.3 2 Sudoeste 9 Norte 0 920.5 -0.9 46
2019-03-30 05:00:00 8.4 5 Norte 30 Este 0 920.6 -1.3 40
2019-03-30 04:00:00 8.8 18 Este 33 Nordeste 0 921.1 -1.4 36
2019-03-30 03:00:00 9 15 Este 41 Este 0 921.4 -1.2 37
2019-03-30 02:00:00 8.5 20 Este 42 Este 0 921.9 -0.7 41
2019-03-30 01:00:00 8.6 21 Este 42 Este 0 922.5 -0.1 44
2019-03-30 00:00:00 8.4 19 Este 47 Este 0 922.6 0.3 51
2019-03-29 23:00:00 9 20 Este 42 Sudeste 0 922.6 0.9 56
2019-03-29 22:00:00 9.7 20 Este 42 Este 0 922.6 1.1 53
2019-03-29 21:00:00 10 21 Este 42 Este 0 922.3 1 52
2019-03-29 20:00:00 10.9 23 Este 44 Sudeste 0 921.7 0.2 49
2019-03-29 19:00:00 12.5 25 Este 42 Este 0 921.5 -0.4 43
2019-03-29 18:00:00 14.4 17 Sudeste 38 Este 0 921.3 -1 36
2019-03-29 17:00:00 14.4 20 Este 42 Este 0 921.5 -1.5 34
2019-03-29 16:00:00 14.9 13 Sudeste 41 Este 0 921.9 -1.4 32
2019-03-29 15:00:00 14 21 Este 38 Sudeste 0 922.3 -1.5 35
2019-03-29 14:00:00 13.3 20 Este 39 Sudeste -- 923 -1.1 34
2019-03-29 13:00:00 13.2 20 Sudeste 41 Sudeste -- 923.3 -0.6 34
2019-03-29 12:00:00 12.1 20 Sudeste 46 Sudeste -- 923.8 0.2 33
2019-03-29 11:00:00 11.5 25 Sudeste 51 Este -- 924.1 0.8 33
2019-03-29 10:00:00 10.2 27 Sudeste 58 Sudeste -- 923.9 0.7 33
2019-03-29 09:00:00 9.3 32 Sudeste 61 Sudeste -- 923.6 0.8 33
2019-03-29 08:00:00 8 32 Sudeste 57 Este -- 923.3 0.3 34
2019-03-29 07:00:00 7.5 23 Sudeste 48 Sudeste -- 923.2 -0.1 36
2019-03-29 06:00:00 7.9 16 Este 52 Este -- 922.8 -1 28
2019-03-29 05:00:00 8 9 Este 46 Sudeste -- 923 -1 24
2019-03-29 04:00:00 7.8 15 Este 39 Sudeste -- 923.3 -0.6 25
2019-03-29 03:00:00 8.4 11 Este 43 Sudeste -- 923.8 -0.5 23
2019-03-29 02:00:00 9.4 19 Sudeste 53 Sudeste -- 924 -0.7 22
2019-03-29 01:00:00 9.8 22 Sudeste 55 Sudeste -- 923.9 -1 25
2019-03-29 00:00:00 9.7 24 Sudeste 51 Sudeste -- 924.3 -0.4 30
2019-03-28 23:00:00 9.7 22 Sudeste 41 Sudeste -- 924.7 0.5 28
2019-03-28 22:00:00 10 18 Sudeste 47 Sudeste -- 924.9 0.9 25
2019-03-28 21:00:00 10.7 19 Sudeste 46 Sudeste -- 924.7 0.9 21
2019-03-28 20:00:00 11.5 18 Sudeste 45 Sudeste -- 924.2 0.6 20
2019-03-28 19:00:00 12.9 21 Este 48 Este -- 924 0.1 18
2019-03-28 18:00:00 14.3 19 Este 36 Este -- 923.8 -0.5 18
2019-03-28 17:00:00 15.1 19 Este 44 Este -- 923.6 -1.3 18
2019-03-28 16:00:00 15.4 21 Este 44 Nordeste -- 923.9 -1.4 20
2019-03-28 15:00:00 15.4 20 Este 43 Este -- 924.3 -1.6 20
2019-03-28 14:00:00 15 20 Este 43 Este -- 924.9 -1 20
2019-03-28 13:00:00 14.5 21 Este 52 Este -- 925.3 -0.5 21
2019-03-28 12:00:00 14 17 Este 44 Este -- 925.9 0.1 21
2019-03-28 11:00:00 12.9 19 Sudeste 45 Este -- 925.9 0.6 18
2019-03-28 10:00:00 11.8 20 Sudeste 40 Sudeste -- 925.8 0.7 17
2019-03-28 09:00:00 10.6 14 Este -- -- -- 925.8 0.7 14
2019-03-28 08:00:00 8.1 9 Sudeste 28 Noroeste -- 925.3 0.3 15
2019-03-28 07:00:00 5.4 9 Oeste 27 Sudeste -- 925.1 0.2 23
2019-03-28 06:00:00 6.7 13 Este 28 Este -- 925.1 0.2 18
2019-03-28 05:00:00 6.4 8 Este 27 Este -- 925 0.1 19
2019-03-28 04:00:00 6.1 5 Oeste 30 Este -- 924.9 -0.2 23
2019-03-28 03:00:00 7 9 Este 36 Este -- 924.9 0.2 24
2019-03-28 02:00:00 7.6 10 Este 31 Este -- 924.9 0.4 32
2019-03-28 01:00:00 8 5 Nordeste 23 Este -- 925.1 1 36
2019-03-28 00:00:00 8.8 11 Este 35 Este -- 924.7 1.1 40
2019-03-27 23:00:00 9.1 4 Este 29 Este -- 924.5 1.5 41
2019-03-27 22:00:00 9.9 9 Este 31 Este -- 924.1 1.6 38
2019-03-27 21:00:00 10.8 13 Este 25 Este -- 923.6 1.6 32
2019-03-27 20:00:00 10.9 6 Este 23 Este -- 923 1.1 29
2019-03-27 19:00:00 13.3 10 Sudeste 32 Este -- 922.5 0.6 23
2019-03-27 18:00:00 14.5 13 Sudeste 30 Sudeste -- 922 0 20
2019-03-27 17:00:00 15 14 Este 31 Sudeste -- 921.9 -0.8 20
2019-03-27 16:00:00 15.3 10 Este 28 Sudeste -- 921.9 -1.1 19
2019-03-27 15:00:00 14.8 11 Sudeste 37 Este -- 922 -1.1 17
2019-03-27 14:00:00 13.6 19 Este 40 Este -- 922.7 -0.4 18
2019-03-27 13:00:00 12.9 15 Este 36 Sudeste -- 923 0.1 19
2019-03-27 12:00:00 12.2 14 Sudeste 41 Este -- 923.1 0.4 23
2019-03-27 11:00:00 10.7 16 Este 43 Este -- 923.1 0.7 26
2019-03-27 10:00:00 9.3 19 Este 45 Este -- 922.9 1.2 31
2019-03-27 09:00:00 7.9 18 Este 53 Este -- 922.7 1.6 36
2019-03-27 08:00:00 6.8 22 Este 52 Este -- 922.4 1.9 39
2019-03-27 07:00:00 6.1 14 Este 40 Este -- 921.7 1.4 41
2019-03-27 06:00:00 6.3 21 Este 62 Este -- 921.1 0.8 39
2019-03-27 05:00:00 6.5 9 Sudeste 56 Sudeste -- 920.5 0 33
2019-03-27 04:00:00 6.9 15 Sudeste 71 Este -- 920.3 0.1 32
2019-03-27 03:00:00 6.4 14 Este 59 Este -- 920.3 0.4 53
2019-03-27 02:00:00 7.1 9 Nordeste 46 Este -- 920.5 0.6 55
2019-03-27 01:00:00 8.3 -- -- -- -- -- 920.2 0.6 50
2019-03-27 00:00:00 8.6 7 Sudoeste 36 Este -- 919.9 0.6 49
2019-03-26 23:00:00 9.4 4 Norte 31 Este -- 919.9 1.4 52
2019-03-26 22:00:00 10.1 4 Norte 37 Sudeste -- 919.6 1.6 53
2019-03-26 21:00:00 11.1 15 Nordeste -- -- -- 919.3 2.5 52
2019-03-26 20:00:00 12 15 Sudeste 48 Sudeste -- 918.5 2 49
2019-03-26 19:00:00 13.4 24 Sudeste 59 Sudeste -- 918 1.6 44
2019-03-26 18:00:00 15.3 25 Sudeste 60 Sudeste -- 916.8 0.2 39
2019-03-26 17:00:00 17 22 Sudeste 54 Este -- 916.5 -0.3 29
2019-03-26 16:00:00 17.4 23 Este 58 Sudeste -- 916.4 -0.5 26
2019-03-26 15:00:00 17.5 23 Este 64 Este -- 916.6 -0.9 24
2019-03-26 14:00:00 16.9 32 Este 73 Sudeste -- 916.8 -0.3 23
2019-03-26 13:00:00 16.3 36 Sudeste 71 Sudeste -- 916.9 -0.1 24
2019-03-26 12:00:00 15.3 39 Sudeste 85 Sudeste -- 917.5 0.7 22
2019-03-26 11:00:00 14.7 39 Sudeste 78 Este -- 917.1 0.5 22
2019-03-26 10:00:00 14 35 Sudeste 71 Sudeste -- 917 0.5 22
2019-03-26 09:00:00 13.5 38 Sudeste 74 Este -- 916.8 0.3 21
2019-03-26 08:00:00 12.4 34 Sudeste 62 Sudeste -- 916.6 0.2 25
2019-03-26 07:00:00 12.5 30 Sudeste 55 Este -- 916.5 -0.2 25
2019-03-26 06:00:00 13.2 18 Este 48 Sudeste -- 916.5 -0.7 21
2019-03-26 05:00:00 13.3 19 Sudeste 43 Nordeste -- 916.4 -1.5 22
2019-03-26 04:00:00 13 12 Este 28 Sudeste -- 916.7 -1.4 25
2019-03-26 03:00:00 12.9 12 Nordeste 29 Sudeste -- 917.2 -1.2 25
2019-03-26 02:00:00 11.4 5 Sur 15 Sudeste -- 917.9 -0.6 33
2019-03-26 01:00:00 10.7 2 Norte 19 Noroeste -- 918.1 -0.5 37
2019-03-26 00:00:00 12 4 Oeste 16 Sudeste -- 918.4 0.1 32
2019-03-25 23:00:00 11.9 3 Sudeste 8 Nordeste -- 918.5 0.5 32
2019-03-25 22:00:00 12.1 5 Este 13 Este -- 918.6 0.7 31
2019-03-25 21:00:00 12.4 8 Sudeste 18 Este -- 918.3 0.8 30
2019-03-25 20:00:00 13.8 8 Sudeste 22 Este -- 918 0.5 27
2019-03-25 19:00:00 16.9 14 Este 32 Este -- 917.9 -0.3 20
2019-03-25 18:00:00 18.3 13 Este 29 Este -- 917.5 -1.4 17
2019-03-25 17:00:00 19.4 10 Este 27 Sudeste -- 917.5 -2.3 17
2019-03-25 16:00:00 19.3 13 Este 30 Este -- 918.2 -2.4 15
2019-03-25 15:00:00 19.1 12 Sudeste 34 Este -- 918.9 -2.2 17
2019-03-25 14:00:00 18.2 13 Sudeste 30 Este -- 919.8 -1.8 19
2019-03-25 13:00:00 17.2 15 Este 32 Sur -- 920.6 -1 19
2019-03-25 12:00:00 17 11 Este 33 Sudeste -- 921.1 -0.2 20
2019-03-25 11:00:00 15.7 13 Sudeste 36 Este -- 921.6 0.4 23
2019-03-25 10:00:00 14.6 16 Sudeste 49 Este -- 921.6 0.6 24
2019-03-25 09:00:00 13.4 5 Nordeste 19 Sudeste -- 921.3 0.3 35
2019-03-25 08:00:00 8.3 3 Sur 12 Sudeste -- 921.2 0.1 50
2019-03-25 07:00:00 6.9 7 Sudeste 14 Sudeste -- 921 -0.4 54
2019-03-25 06:00:00 7.2 4 Sudeste 16 Sudeste -- 921 -0.8 51
2019-03-25 05:00:00 7.6 10 Sudeste 17 Sudeste -- 921.1 -0.9 50
2019-03-25 04:00:00 7.5 5 Sudeste 18 Sur -- 921.4 -0.6 51
2019-03-25 03:00:00 8.2 8 Sudeste 18 Sudeste -- 921.8 -0.2 49
2019-03-25 02:00:00 9.4 2 Nordeste 15 Noroeste -- 922 -0.3 43
2019-03-25 01:00:00 10.7 4 Sudoeste 20 Sudoeste -- 922 -0.6 38
2019-03-25 00:00:00 10.8 8 Oeste 22 Este -- 922 -0.5 39